createdAt,value
2017-10-26T00:00:35.718Z,9.40
2017-10-26T00:03:03.267Z,8.40
2017-10-26T00:05:30.752Z,6.33
2017-10-26T00:07:58.275Z,8.13
2017-10-26T00:10:25.762Z,8.50
2017-10-26T00:12:53.393Z,6.03
2017-10-26T00:15:20.892Z,6.03
2017-10-26T00:17:48.383Z,5.30
2017-10-26T00:20:15.968Z,5.93
2017-10-26T00:22:43.453Z,4.97
2017-10-26T00:25:10.985Z,5.20
2017-10-26T00:27:38.479Z,3.87
2017-10-26T00:30:05.970Z,3.90
2017-10-26T00:32:33.497Z,4.60
2017-10-26T00:35:01.053Z,5.30
2017-10-26T00:37:28.530Z,3.63
2017-10-26T00:39:56.059Z,4.93
2017-10-26T00:42:23.544Z,3.57
2017-10-26T00:44:51.036Z,4.80
2017-10-26T00:47:18.547Z,4.23
2017-10-26T00:49:46.028Z,5.00
2017-10-26T00:52:13.529Z,5.63
2017-10-26T00:54:41.066Z,6.53
2017-10-26T00:57:08.559Z,3.80
2017-10-26T00:59:36.095Z,3.17
2017-10-26T01:02:03.664Z,4.47
2017-10-26T01:04:31.221Z,4.70
2017-10-26T01:06:58.704Z,4.20
2017-10-26T01:09:26.246Z,3.93
2017-10-26T01:11:53.735Z,4.60
2017-10-26T01:14:21.222Z,4.10
2017-10-26T01:16:48.803Z,4.40
2017-10-26T01:19:16.288Z,3.97
2017-10-26T01:21:43.772Z,4.40
2017-10-26T01:24:11.301Z,4.80
2017-10-26T01:26:38.831Z,5.03
2017-10-26T01:29:06.330Z,4.73
2017-10-26T01:31:33.850Z,4.87
2017-10-26T01:34:01.343Z,3.80
2017-10-26T01:36:28.976Z,5.97
2017-10-26T01:38:56.466Z,5.40
2017-10-26T01:41:23.968Z,5.37
2017-10-26T01:43:51.485Z,4.00
2017-10-26T01:46:19.203Z,4.40
2017-10-26T01:48:46.683Z,4.90
2017-10-26T01:51:14.174Z,5.00
2017-10-26T01:53:41.704Z,5.67
2017-10-26T01:56:09.193Z,5.70
2017-10-26T01:58:36.681Z,6.50
2017-10-26T02:01:04.201Z,6.13
2017-10-26T02:03:31.684Z,6.53
2017-10-26T02:05:59.176Z,6.87
2017-10-26T02:08:26.738Z,5.87
2017-10-26T02:10:54.231Z,8.50
2017-10-26T02:13:21.752Z,8.57
2017-10-26T02:15:49.259Z,8.10
2017-10-26T02:18:16.748Z,7.63
2017-10-26T02:20:44.327Z,8.33
2017-10-26T02:23:11.811Z,8.23
2017-10-26T02:25:39.310Z,8.13
2017-10-26T02:28:06.842Z,7.23
2017-10-26T02:30:46.441Z,9.00
2017-10-26T02:33:14.006Z,7.03
2017-10-26T02:35:41.504Z,7.73
2017-10-26T02:38:09.033Z,7.27
2017-10-26T02:40:36.515Z,8.53
2017-10-26T02:43:04.014Z,9.40
2017-10-26T02:45:31.554Z,8.83
2017-10-26T02:47:59.041Z,8.60
2017-10-26T02:50:26.526Z,7.73
2017-10-26T02:52:54.059Z,8.00
2017-10-26T02:55:21.545Z,7.50
2017-10-26T02:57:49.033Z,8.80
2017-10-26T03:00:16.568Z,8.13
2017-10-26T03:02:44.059Z,8.03
2017-10-26T03:05:11.547Z,8.57
2017-10-26T03:07:39.067Z,8.37
2017-10-26T03:10:06.547Z,7.63
2017-10-26T03:12:34.034Z,7.87
2017-10-26T03:15:01.556Z,7.70
2017-10-26T03:17:29.052Z,7.47
2017-10-26T03:19:56.541Z,7.43
2017-10-26T03:22:24.064Z,6.67
2017-10-26T03:24:51.560Z,6.70
2017-10-26T03:27:19.071Z,6.07
2017-10-26T03:29:46.609Z,7.20
2017-10-26T03:32:14.100Z,5.70
2017-10-26T03:34:42.475Z,6.50
2017-10-26T03:37:10.008Z,7.30
2017-10-26T03:39:37.510Z,6.93
2017-10-26T03:42:04.996Z,7.00
2017-10-26T03:44:32.609Z,7.20
2017-10-26T03:47:00.096Z,7.33
2017-10-26T03:49:27.582Z,6.70
2017-10-26T03:51:55.114Z,7.13
2017-10-26T03:54:22.607Z,6.97
2017-10-26T03:56:50.101Z,7.50
2017-10-26T03:59:17.623Z,14.00
2017-10-26T04:01:45.163Z,7.70
2017-10-26T04:04:12.647Z,8.20
2017-10-26T04:06:40.132Z,8.03
2017-10-26T04:09:07.661Z,7.63
2017-10-26T04:11:35.164Z,7.93
2017-10-26T04:14:02.654Z,7.63
2017-10-26T04:16:30.177Z,7.77
2017-10-26T04:18:57.667Z,7.83
2017-10-26T04:21:25.222Z,7.70
2017-10-26T04:23:52.715Z,8.37
2017-10-26T04:26:20.200Z,8.00
2017-10-26T04:28:47.717Z,9.23
2017-10-26T04:31:15.251Z,8.77
2017-10-26T04:33:42.740Z,10.00
2017-10-26T04:36:10.326Z,10.87
2017-10-26T04:38:37.855Z,12.20
2017-10-26T04:41:05.344Z,9.00
2017-10-26T04:43:32.837Z,9.40
2017-10-26T04:46:00.380Z,9.70
2017-10-26T04:48:27.925Z,10.50
2017-10-26T04:50:55.418Z,9.20
2017-10-26T04:53:22.945Z,13.50
2017-10-26T04:55:50.441Z,10.93
2017-10-26T04:58:17.940Z,13.63
2017-10-26T05:00:45.489Z,11.80
2017-10-26T05:03:12.984Z,15.57
2017-10-26T05:05:40.470Z,11.30
2017-10-26T05:08:08.008Z,12.30
2017-10-26T05:10:35.547Z,10.63
2017-10-26T05:13:03.042Z,11.20
2017-10-26T05:15:30.556Z,11.40
2017-10-26T05:17:58.140Z,12.60
2017-10-26T05:20:25.630Z,12.70
2017-10-26T05:22:53.132Z,12.33
2017-10-26T05:25:20.645Z,13.33
2017-10-26T05:27:48.275Z,16.60
2017-10-26T05:30:15.775Z,14.23
2017-10-26T05:32:43.278Z,12.53
2017-10-26T05:35:10.808Z,11.97
2017-10-26T05:37:38.302Z,13.10
2017-10-26T05:40:05.796Z,13.60
2017-10-26T05:42:33.340Z,16.77
2017-10-26T05:45:00.840Z,12.40
2017-10-26T05:47:28.342Z,15.63
2017-10-26T05:49:55.881Z,13.47
2017-10-26T05:52:23.379Z,25.17
2017-10-26T05:54:50.869Z,12.03
2017-10-26T05:57:18.417Z,17.13
2017-10-26T05:59:46.014Z,14.93
2017-10-26T06:02:13.516Z,20.60
2017-10-26T06:04:41.064Z,17.33
2017-10-26T06:07:08.710Z,20.67
2017-10-26T06:09:36.201Z,11.30
2017-10-26T06:12:03.814Z,23.27
2017-10-26T06:14:31.362Z,26.07
2017-10-26T06:16:58.934Z,16.43
2017-10-26T06:19:26.432Z,10.80
2017-10-26T06:21:54.053Z,13.20
2017-10-26T06:24:21.557Z,14.60
2017-10-26T06:26:49.051Z,12.80
2017-10-26T06:29:16.592Z,12.13
2017-10-26T06:31:44.091Z,11.80
2017-10-26T06:34:11.582Z,11.67
2017-10-26T06:36:39.203Z,47.47
2017-10-26T06:39:06.708Z,11.03
2017-10-26T06:41:34.234Z,10.00
2017-10-26T06:44:01.732Z,9.70
2017-10-26T06:46:29.236Z,18.17
2017-10-26T06:48:56.813Z,12.07
2017-10-26T06:51:24.302Z,13.80
2017-10-26T06:53:51.790Z,10.30
2017-10-26T06:56:19.308Z,11.40
2017-10-26T06:58:46.842Z,21.83
2017-10-26T07:01:14.369Z,18.23
2017-10-26T07:03:41.859Z,12.53
2017-10-26T07:06:09.388Z,10.33
2017-10-26T07:08:36.876Z,8.70
2017-10-26T07:11:04.372Z,11.10
2017-10-26T07:13:31.982Z,16.63
2017-10-26T07:15:59.489Z,8.23
2017-10-26T07:18:27.059Z,20.23
2017-10-26T07:20:54.756Z,8.60
2017-10-26T07:23:22.257Z,10.90
2017-10-26T07:25:49.743Z,7.03
2017-10-26T07:28:17.331Z,8.33
2017-10-26T07:30:44.919Z,7.40
2017-10-26T07:33:12.405Z,7.10
2017-10-26T07:35:39.935Z,14.53
2017-10-26T07:38:07.441Z,7.20
2017-10-26T07:40:34.927Z,7.50
2017-10-26T07:43:02.449Z,7.20
2017-10-26T07:45:29.953Z,8.03
2017-10-26T07:47:57.447Z,7.17
2017-10-26T07:50:24.984Z,7.07
2017-10-26T07:52:52.518Z,8.13
2017-10-26T07:55:20.042Z,6.63
2017-10-26T07:57:47.630Z,7.10
2017-10-26T08:00:15.116Z,5.67
2017-10-26T08:02:42.605Z,7.67
2017-10-26T08:05:10.204Z,7.43
2017-10-26T08:07:37.696Z,6.70
2017-10-26T08:10:05.223Z,6.50
2017-10-26T08:12:32.876Z,6.53
2017-10-26T08:15:00.443Z,7.57
2017-10-26T08:17:27.949Z,5.80
2017-10-26T08:19:55.584Z,6.13
2017-10-26T08:22:23.081Z,5.63
2017-10-26T08:24:50.565Z,5.17
2017-10-26T08:27:18.083Z,6.47
2017-10-26T08:29:45.596Z,6.70
2017-10-26T08:32:13.084Z,6.30
2017-10-26T08:34:40.616Z,5.37
2017-10-26T08:37:08.104Z,9.40
2017-10-26T08:39:35.590Z,6.30
2017-10-26T08:42:03.121Z,5.57
2017-10-26T08:44:30.612Z,6.80
2017-10-26T08:46:58.208Z,10.20
2017-10-26T08:49:25.720Z,4.90
2017-10-26T08:51:53.420Z,5.67
2017-10-26T08:54:20.906Z,5.03
2017-10-26T08:56:48.437Z,4.90
2017-10-26T08:59:15.947Z,4.97
2017-10-26T09:01:44.583Z,5.90
2017-10-26T09:04:12.076Z,4.90
2017-10-26T09:06:39.565Z,5.33
2017-10-26T09:09:07.163Z,5.60
2017-10-26T09:11:34.710Z,4.47
2017-10-26T09:14:02.194Z,5.77
2017-10-26T09:16:29.735Z,4.50
2017-10-26T09:18:57.232Z,5.40
2017-10-26T09:21:24.727Z,5.43
2017-10-26T09:23:52.240Z,5.23
2017-10-26T09:26:19.737Z,5.07
2017-10-26T09:28:47.251Z,5.90
2017-10-26T09:31:14.750Z,5.40
2017-10-26T09:33:42.236Z,5.80
2017-10-26T09:36:09.770Z,5.70
2017-10-26T09:38:37.363Z,5.17
2017-10-26T09:41:04.856Z,5.40
2017-10-26T09:43:32.480Z,4.93
2017-10-26T09:45:59.979Z,4.70
2017-10-26T09:48:27.465Z,4.83
2017-10-26T09:50:54.984Z,5.00
2017-10-26T09:53:22.475Z,5.53
2017-10-26T09:55:50.070Z,6.27
2017-10-26T09:58:17.607Z,6.10
2017-10-26T10:00:45.595Z,7.53
2017-10-26T10:03:13.096Z,8.43
2017-10-26T10:05:40.732Z,9.03
2017-10-26T10:08:08.232Z,7.93
2017-10-26T10:10:35.723Z,8.20
2017-10-26T10:13:03.240Z,8.20
2017-10-26T10:15:30.723Z,9.30
2017-10-26T10:17:58.306Z,8.20
2017-10-26T10:20:25.837Z,8.60
2017-10-26T10:22:53.431Z,8.60
2017-10-26T10:25:20.923Z,6.90
2017-10-26T10:27:48.445Z,7.70
2017-10-26T10:30:15.960Z,9.10
2017-10-26T10:32:43.457Z,7.60
2017-10-26T10:35:10.975Z,7.87
2017-10-26T10:37:38.496Z,9.00
2017-10-26T10:40:05.978Z,8.30
2017-10-26T10:42:33.491Z,8.00
2017-10-26T10:45:00.982Z,6.40
2017-10-26T10:47:28.512Z,8.77
2017-10-26T10:49:56.000Z,6.13
2017-10-26T10:52:23.501Z,8.63
2017-10-26T10:54:51.080Z,7.00
2017-10-26T10:57:18.575Z,7.27
2017-10-26T10:59:51.710Z,6.63
2017-10-26T11:02:19.198Z,7.40
2017-10-26T11:04:46.714Z,5.70
2017-10-26T11:07:14.205Z,6.10
2017-10-26T11:09:41.870Z,7.50
2017-10-26T11:12:09.367Z,6.20
2017-10-26T11:14:36.853Z,5.63
2017-10-26T11:17:04.381Z,4.90
2017-10-26T11:19:31.874Z,4.90
2017-10-26T11:21:59.361Z,5.50
2017-10-26T11:24:26.891Z,4.70
2017-10-26T11:26:54.387Z,5.07
2017-10-26T11:29:21.877Z,6.03
2017-10-26T11:31:49.392Z,5.90
2017-10-26T11:34:17.056Z,5.27
2017-10-26T11:36:44.544Z,6.07
2017-10-26T11:39:12.034Z,6.17
2017-10-26T11:41:39.548Z,6.20
2017-10-26T11:44:07.086Z,5.30
2017-10-26T11:46:34.576Z,6.20
2017-10-26T11:49:02.070Z,5.77
2017-10-26T11:51:29.729Z,5.53
2017-10-26T11:53:57.221Z,5.40
2017-10-26T11:56:24.712Z,7.93
2017-10-26T11:58:52.224Z,6.60
2017-10-26T12:01:19.747Z,8.10
2017-10-26T12:03:47.272Z,7.33
2017-10-26T12:06:15.022Z,5.93
2017-10-26T12:08:42.579Z,8.53
2017-10-26T12:11:10.069Z,8.87
2017-10-26T12:13:37.691Z,8.37
2017-10-26T12:16:05.184Z,7.27
2017-10-26T12:18:32.723Z,7.83
2017-10-26T12:21:00.265Z,6.90
2017-10-26T12:23:27.759Z,7.00
2017-10-26T12:25:55.248Z,7.10
2017-10-26T12:28:22.784Z,8.33
2017-10-26T12:30:50.286Z,14.33
2017-10-26T12:33:17.776Z,7.60
2017-10-26T12:35:45.298Z,9.23
2017-10-26T12:38:12.788Z,8.03
2017-10-26T12:40:40.282Z,9.00
2017-10-26T12:43:07.989Z,8.10
2017-10-26T12:45:35.486Z,10.00
2017-10-26T12:48:03.830Z,9.07
2017-10-26T12:50:31.374Z,10.20
2017-10-26T12:52:58.861Z,9.80
2017-10-26T12:55:26.352Z,11.20
2017-10-26T12:57:53.898Z,11.60
2017-10-26T13:00:21.393Z,10.27
2017-10-26T13:02:48.884Z,11.17
2017-10-26T13:05:16.436Z,11.77
2017-10-26T13:07:43.995Z,11.90
2017-10-26T13:10:11.500Z,12.67
2017-10-26T13:12:39.037Z,10.90
2017-10-26T13:15:06.535Z,11.67
2017-10-26T13:17:34.036Z,11.10
2017-10-26T13:20:01.564Z,11.40
2017-10-26T13:22:29.074Z,12.17
2017-10-26T13:24:56.683Z,11.30
2017-10-26T13:27:24.182Z,12.20
2017-10-26T13:29:51.727Z,11.80
2017-10-26T13:32:19.316Z,14.67
2017-10-26T13:34:46.812Z,12.10
2017-10-26T13:37:14.408Z,14.07
2017-10-26T13:39:41.947Z,13.13
2017-10-26T13:42:09.436Z,14.00
2017-10-26T13:44:36.924Z,13.67
2017-10-26T13:47:04.444Z,12.87
2017-10-26T13:49:32.003Z,11.20
2017-10-26T13:51:59.494Z,12.60
2017-10-26T13:54:27.023Z,15.07
2017-10-26T13:56:54.594Z,12.63
2017-10-26T13:59:22.239Z,12.03
2017-10-26T14:01:49.732Z,12.63
2017-10-26T14:04:17.246Z,12.33
2017-10-26T14:06:44.760Z,11.13
2017-10-26T14:09:12.353Z,12.17
2017-10-26T14:11:39.839Z,12.47
2017-10-26T14:14:07.339Z,11.57
2017-10-26T14:16:34.861Z,13.43
2017-10-26T14:19:02.362Z,12.00
2017-10-26T14:21:29.860Z,15.07
2017-10-26T14:23:57.402Z,12.67
2017-10-26T14:26:24.906Z,12.70
2017-10-26T14:28:52.412Z,12.40
2017-10-26T14:31:19.951Z,11.93
2017-10-26T14:33:47.443Z,12.70
2017-10-26T14:36:14.961Z,13.20
2017-10-26T14:38:42.500Z,17.00
2017-10-26T14:41:09.992Z,18.70
2017-10-26T14:43:37.484Z,14.30
2017-10-26T14:46:05.043Z,15.67
2017-10-26T14:48:32.607Z,12.90
2017-10-26T14:51:00.100Z,13.60
2017-10-26T14:53:27.647Z,15.30
2017-10-26T14:55:55.135Z,15.10
2017-10-26T14:58:22.629Z,13.90
2017-10-26T15:00:50.149Z,15.70
2017-10-26T15:03:17.663Z,17.37
2017-10-26T15:05:45.156Z,15.90
2017-10-26T15:08:12.681Z,14.80
2017-10-26T15:10:40.220Z,14.80
2017-10-26T15:13:07.776Z,16.30
2017-10-26T15:15:35.341Z,14.77
2017-10-26T15:18:02.831Z,15.77
2017-10-26T15:20:30.358Z,15.70
2017-10-26T15:22:57.910Z,16.27
2017-10-26T15:25:25.408Z,16.20
2017-10-26T15:27:52.961Z,16.80
2017-10-26T15:30:20.447Z,15.83
2017-10-26T15:32:47.937Z,15.93
2017-10-26T15:35:15.513Z,16.03
2017-10-26T15:37:43.011Z,16.63
2017-10-26T15:40:10.567Z,17.10
2017-10-26T15:42:38.072Z,16.00
2017-10-26T15:45:05.566Z,16.93
2017-10-26T15:47:33.312Z,15.50
2017-10-26T15:50:00.868Z,17.97
2017-10-26T15:52:28.359Z,17.17
2017-10-26T15:54:55.891Z,17.53
2017-10-26T15:57:23.465Z,15.70
2017-10-26T15:59:50.955Z,15.23
2017-10-26T16:02:17.782Z,17.63
2017-10-26T16:04:45.278Z,13.17
2017-10-26T16:07:12.781Z,15.87
2017-10-26T16:09:40.323Z,15.80
2017-10-26T16:12:07.896Z,17.43
2017-10-26T16:14:35.391Z,18.37
2017-10-26T16:17:02.908Z,17.63
2017-10-26T16:19:30.427Z,17.80
2017-10-26T16:21:57.920Z,16.30
2017-10-26T16:24:25.408Z,16.50
2017-10-26T16:26:53.032Z,18.37
2017-10-26T16:29:20.525Z,15.60
2017-10-26T16:31:48.022Z,17.77
2017-10-26T16:34:15.546Z,19.40
2017-10-26T16:36:43.046Z,19.13
2017-10-26T16:39:10.542Z,16.97
2017-10-26T16:41:38.101Z,22.87
2017-10-26T16:44:05.601Z,19.33
2017-10-26T16:46:33.095Z,25.23
2017-10-26T16:49:00.673Z,21.03
2017-10-26T16:51:28.168Z,18.70
2017-10-26T16:53:55.768Z,47.77
2017-10-26T16:56:23.288Z,22.60
2017-10-26T16:58:50.883Z,17.63
2017-10-26T17:01:18.420Z,16.37
2017-10-26T17:03:46.015Z,16.70
2017-10-26T17:06:13.568Z,15.50
2017-10-26T17:08:41.094Z,17.57
2017-10-26T17:11:08.626Z,15.80
2017-10-26T17:13:36.112Z,15.87
2017-10-26T17:16:03.596Z,14.43
2017-10-26T17:18:31.147Z,17.13
2017-10-26T17:20:58.650Z,18.40
2017-10-26T17:23:26.142Z,20.07
2017-10-26T17:25:53.671Z,13.10
2017-10-26T17:28:21.188Z,14.63
2017-10-26T17:30:48.681Z,13.77
2017-10-26T17:33:16.205Z,16.53
2017-10-26T17:35:43.699Z,15.40
2017-10-26T17:38:11.194Z,15.13
2017-10-26T17:40:38.788Z,14.53
2017-10-26T17:43:06.281Z,13.10
2017-10-26T17:45:33.784Z,14.70
2017-10-26T17:48:01.317Z,14.93
2017-10-26T17:50:28.810Z,13.93
2017-10-26T17:52:56.304Z,15.30
2017-10-26T17:55:23.820Z,14.47
2017-10-26T17:57:51.343Z,20.03
2017-10-26T18:00:18.838Z,15.07
2017-10-26T18:02:46.344Z,16.03
2017-10-26T18:05:13.975Z,14.80
2017-10-26T18:07:41.476Z,14.43
2017-10-26T18:10:08.972Z,14.60
2017-10-26T18:12:36.512Z,13.10
2017-10-26T18:15:04.097Z,14.43
2017-10-26T18:17:31.656Z,16.90
2017-10-26T18:19:59.168Z,14.70
2017-10-26T18:22:26.662Z,15.67
2017-10-26T18:24:54.188Z,16.47
2017-10-26T18:27:21.676Z,14.00
2017-10-26T18:29:49.174Z,13.87
2017-10-26T18:32:16.707Z,16.20
2017-10-26T18:34:44.272Z,16.47
2017-10-26T18:37:11.823Z,17.17
2017-10-26T18:39:39.358Z,16.40
2017-10-26T18:42:06.861Z,18.77
2017-10-26T18:44:34.354Z,17.47
2017-10-26T18:47:01.888Z,21.17
2017-10-26T18:49:29.384Z,22.10
2017-10-26T18:51:56.876Z,24.27
2017-10-26T18:54:24.549Z,21.77
2017-10-26T18:56:52.045Z,19.37
2017-10-26T18:59:19.537Z,15.67
2017-10-26T19:01:47.220Z,15.73
2017-10-26T19:04:14.720Z,17.30
2017-10-26T19:06:42.217Z,16.50
2017-10-26T19:09:09.767Z,16.97
2017-10-26T19:11:37.267Z,17.33
2017-10-26T19:14:04.759Z,27.70
2017-10-26T19:16:32.300Z,20.00
2017-10-26T19:18:59.797Z,19.63
2017-10-26T19:21:27.327Z,15.80
2017-10-26T19:23:55.048Z,15.07
2017-10-26T19:26:22.540Z,13.83
2017-10-26T19:28:50.037Z,14.30
2017-10-26T19:31:17.555Z,15.53
2017-10-26T19:33:45.085Z,13.83
2017-10-26T19:36:12.616Z,11.67
2017-10-26T19:38:40.103Z,14.47
2017-10-26T19:41:07.594Z,13.00
2017-10-26T19:43:35.144Z,14.20
2017-10-26T19:46:02.642Z,14.70
2017-10-26T19:48:30.223Z,12.53
2017-10-26T19:50:57.784Z,12.37
2017-10-26T19:53:25.284Z,13.47
2017-10-26T19:55:52.780Z,15.33
2017-10-26T19:58:20.362Z,18.13
2017-10-26T20:00:47.888Z,15.93
2017-10-26T20:03:15.389Z,15.70
2017-10-26T20:05:42.960Z,20.10
2017-10-26T20:08:10.480Z,15.83
2017-10-26T20:10:37.983Z,13.57
2017-10-26T20:13:05.622Z,19.00
2017-10-26T20:15:33.115Z,14.43
2017-10-26T20:18:00.616Z,21.30
2017-10-26T20:20:28.131Z,31.80
2017-10-26T20:22:55.752Z,23.30
2017-10-26T20:25:23.255Z,18.90
2017-10-26T20:27:50.748Z,21.77
2017-10-26T20:30:18.540Z,17.63
2017-10-26T20:32:46.037Z,15.87
2017-10-26T20:35:13.543Z,18.73
2017-10-26T20:37:41.117Z,17.73
2017-10-26T20:40:08.672Z,25.80
2017-10-26T20:42:36.199Z,19.67
2017-10-26T20:45:03.743Z,16.33
2017-10-26T20:47:31.261Z,18.40
2017-10-26T20:50:04.340Z,22.50
2017-10-26T20:55:39.087Z,19.20
2017-10-26T20:58:12.213Z,18.43
2017-10-26T21:00:45.295Z,22.33
2017-10-26T21:03:18.416Z,20.80
2017-10-26T21:05:51.608Z,19.30
2017-10-26T21:11:26.056Z,28.40
2017-10-26T21:13:59.291Z,19.33
2017-10-26T21:16:26.782Z,18.43
2017-10-26T21:18:54.278Z,25.03
2017-10-26T21:21:21.826Z,20.73
2017-10-26T21:23:49.425Z,20.27
2017-10-26T21:26:16.917Z,21.40
2017-10-26T21:28:44.535Z,16.17
2017-10-26T21:31:12.026Z,32.00
2017-10-26T21:33:45.282Z,16.40
2017-10-26T21:36:12.779Z,21.67
2017-10-26T21:38:40.500Z,19.30
2017-10-26T21:41:08.010Z,17.10
2017-10-26T21:43:35.502Z,17.97
2017-10-26T21:46:03.035Z,14.93
2017-10-26T21:48:30.538Z,14.43
2017-10-26T21:50:58.035Z,12.57
2017-10-26T21:53:25.576Z,10.80
2017-10-26T21:55:53.113Z,15.47
2017-10-26T21:58:20.608Z,12.33
2017-10-26T22:00:48.153Z,14.23
2017-10-26T22:03:15.664Z,11.90
2017-10-26T22:05:43.162Z,11.33
2017-10-26T22:08:10.700Z,12.70
2017-10-26T22:10:38.196Z,12.60
2017-10-26T22:13:05.687Z,12.50
2017-10-26T22:15:33.221Z,14.93
2017-10-26T22:18:00.787Z,15.93
2017-10-26T22:20:28.291Z,19.97
2017-10-26T22:22:55.783Z,12.60
2017-10-26T22:25:23.415Z,13.13
2017-10-26T22:27:50.972Z,14.80
2017-10-26T22:30:18.466Z,14.33
2017-10-26T22:32:46.104Z,13.23
2017-10-26T22:35:13.613Z,11.43
2017-10-26T22:37:41.112Z,13.40
2017-10-26T22:40:08.648Z,11.90
2017-10-26T22:42:36.144Z,11.27
2017-10-26T22:45:03.679Z,13.47
2017-10-26T22:47:31.200Z,12.80
2017-10-26T22:49:58.712Z,12.80
2017-10-26T22:52:26.211Z,14.23
2017-10-26T22:54:53.760Z,16.10
2017-10-26T22:57:21.254Z,13.47
2017-10-26T22:59:48.750Z,15.07
2017-10-26T23:02:16.383Z,16.10
2017-10-26T23:04:43.875Z,13.63
2017-10-26T23:07:11.372Z,14.90
2017-10-26T23:09:38.897Z,13.30
2017-10-26T23:12:06.393Z,13.00
2017-10-26T23:14:33.883Z,14.80
2017-10-26T23:17:01.452Z,12.90
2017-10-26T23:19:28.951Z,15.10
2017-10-26T23:21:56.444Z,15.53
2017-10-26T23:24:24.022Z,12.70
2017-10-26T23:26:51.512Z,15.17
2017-10-26T23:29:19.012Z,14.37
2017-10-26T23:31:46.668Z,17.00
2017-10-26T23:34:14.163Z,15.90
2017-10-26T23:36:41.673Z,15.83
2017-10-26T23:39:09.205Z,18.70
2017-10-26T23:41:36.727Z,19.97
2017-10-26T23:44:04.218Z,15.37
2017-10-26T23:46:31.837Z,17.80
2017-10-26T23:48:59.368Z,14.57
2017-10-26T23:51:26.866Z,16.10
2017-10-26T23:53:54.521Z,14.20
2017-10-26T23:56:22.016Z,14.90
2017-10-26T23:58:49.508Z,14.60
